TimePDT,TemperatureF,Dew PointF,Humidity,Sea Level PressureIn,VisibilityMPH,Wind Direction,Wind SpeedMPH,Gust SpeedMPH,PrecipitationIn,Events,Conditions,WindDirDegrees,DateUTC
12:53 AM,72.0,54.0,53,29.97,-9999.0,West,10.4,-,N/A,,Overcast,270,2012-10-12 07:53:00
1:53 AM,68.0,53.1,59,29.97,-9999.0,WNW,6.9,-,N/A,,Clear,290,2012-10-12 08:53:00
2:53 AM,68.0,52.0,56,29.98,-9999.0,West,9.2,-,N/A,,Clear,280,2012-10-12 09:53:00
3:53 AM,69.1,53.1,57,29.99,-9999.0,West,11.5,-,N/A,,Scattered Clouds,280,2012-10-12 10:53:00
4:53 AM,70.0,53.1,55,29.99,-9999.0,WNW,10.4,-,N/A,,Partly Cloudy,300,2012-10-12 11:53:00
5:53 AM,70.0,52.0,53,30.01,-9999.0,WNW,9.2,-,N/A,,Clear,290,2012-10-12 12:53:00
6:53 AM,69.1,52.0,54,30.04,-9999.0,WNW,8.1,-,N/A,,Clear,290,2012-10-12 13:53:00
7:08 AM,66.2,51.8,60,30.06,7.0,WNW,8.1,-,N/A,,Partly Cloudy,290,2012-10-12 14:08:00
7:53 AM,73.0,55.0,53,30.07,7.0,WNW,9.2,-,N/A,,Scattered Clouds,290,2012-10-12 14:53:00
8:53 AM,75.0,55.9,51,30.09,7.0,WNW,10.4,-,N/A,,Scattered Clouds,300,2012-10-12 15:53:00
9:53 AM,77.0,55.0,47,30.10,7.0,West,6.9,-,N/A,,Scattered Clouds,280,2012-10-12 16:53:00
10:53 AM,78.1,55.9,46,30.11,7.0,NW,12.7,-,N/A,,Scattered Clouds,320,2012-10-12 17:53:00
11:51 AM,78.8,55.4,44,30.14,-9999.0,WNW,8.1,-,N/A,,Mostly Cloudy,290,2012-10-12 18:51:00
11:53 AM,79.0,55.9,45,30.12,-9999.0,WSW,8.1,-,N/A,,Mostly Cloudy,250,2012-10-12 18:53:00
12:20 PM,82.4,55.4,39,30.15,7.0,WSW,12.7,-,N/A,,Mostly Cloudy,240,2012-10-12 19:20:00
12:53 PM,82.9,55.9,39,30.13,7.0,West,12.7,17.3,N/A,,Overcast,270,2012-10-12 19:53:00
1:07 PM,82.4,53.6,37,30.15,7.0,West,9.2,25.3,N/A,,Mostly Cloudy,270,2012-10-12 20:07:00
1:53 PM,82.0,55.0,39,30.12,7.0,West,12.7,18.4,N/A,,Mostly Cloudy,280,2012-10-12 20:53:00
2:43 PM,78.8,53.6,42,30.13,7.0,West,13.8,-,N/A,,Mostly Cloudy,280,2012-10-12 21:43:00
2:53 PM,79.0,54.0,42,30.11,7.0,WNW,13.8,-,N/A,,Scattered Clouds,300,2012-10-12 21:53:00
3:53 PM,77.0,54.0,45,30.12,7.0,WNW,12.7,-,N/A,,Scattered Clouds,290,2012-10-12 22:53:00
4:53 PM,75.9,55.0,48,30.11,7.0,WNW,12.7,-,N/A,,Mostly Cloudy,300,2012-10-12 23:53:00
5:53 PM,75.0,55.0,50,30.12,-9999.0,West,10.4,-,N/A,,Overcast,280,2012-10-13 00:53:00
6:53 PM,72.0,54.0,53,30.13,-9999.0,West,10.4,-,N/A,,Clear,280,2012-10-13 01:53:00
7:53 PM,71.1,54.0,55,30.14,-9999.0,WNW,9.2,-,N/A,,Clear,290,2012-10-13 02:53:00
9:53 PM,70.0,53.1,55,30.15,-9999.0,WNW,12.7,-,N/A,,Clear,300,2012-10-13 04:53:00
10:53 PM,70.0,54.0,57,30.15,-9999.0,WNW,11.5,-,N/A,,Clear,290,2012-10-13 05:53:00
11:53 PM,70.0,54.0,57,30.15,-9999.0,WNW,11.5,-,N/A,,Clear,290,2012-10-13 06:53:00